^^
Datos históricos de la estación: Murcia-Puente Tocinos
Diario Informe para Julio 7, 2019 Unidades:  Ingés    Métrico   Ambas
Diario Semanal Mensual Anual
  Máxima: Mínima: Promedio:
Temperatura: 81.7 °F 61.3 °F 69.4 °F
Punto de rocio: 60.4 °F 54 °F 57.6 °F
Humedad: 88% 39% 68%
Velocidad viento: 13mph 0mph 4.2mph
Racha viento: 23mph - -
Viento- - SE
Presión: 30 in 29.9 in -
Precipitación: 0 in    
 
 
Tabla de datos para Julio 7, 2019
Hora Temperatura Punto de rocio Presión Viento Velocidad viento Racha viento Humedad Intensidad lluvia(por hora) Nubes
00:04 62.6 °F 57.9 °F 30 in NE 4.3 mph 7.4 mph 85% 0 in
00:09 62.4 °F 57.7 °F 30 in NNE 4.4 mph 7 mph 85% 0 in
00:14 62.2 °F 57.7 °F 30 in NE 4.7 mph 7.4 mph 85% 0 in
00:19 62.1 °F 57.7 °F 30 in NE 4.5 mph 7 mph 85.7% 0 in
00:24 62.1 °F 57.7 °F 30 in NE 4.3 mph 7.4 mph 86% 0 in
00:29 62.1 °F 57.7 °F 30 in NE 4.2 mph 8.1 mph 86% 0 in
00:34 61.9 °F 57.7 °F 30 in NE 4 mph 8.1 mph 86% 0 in
00:39 61.9 °F 57.6 °F 30 in NE 4.3 mph 7.4 mph 86% 0 in
00:44 61.7 °F 57.6 °F 30 in NE 4.7 mph 7.4 mph 86% 0 in
00:49 61.7 °F 57.7 °F 30 in NE 4.5 mph 7 mph 87% 0 in
00:54 61.7 °F 57.7 °F 30 in NE 4.3 mph 7 mph 87% 0 in
00:59 61.7 °F 57.7 °F 30 in NE 4.2 mph 7 mph 87% 0 in
01:04 61.7 °F 57.7 °F 30 in NE 4 mph 7 mph 87% 0 in
01:09 61.7 °F 57.7 °F 30 in NE 4 mph 7 mph 87% 0 in
01:14 61.7 °F 57.7 °F 30 in NE 4 mph 7 mph 87% 0 in
01:19 61.5 °F 57.6 °F 30 in NE 4 mph 7 mph 87% 0 in
01:24 61.5 °F 57.6 °F 30 in NE 4 mph 6 mph 87% 0 in
01:29 61.5 °F 57.6 °F 30 in NE 3.9 mph 6 mph 87% 0 in
01:34 61.5 °F 57.6 °F 30 in NE 3.6 mph 6 mph 87% 0 in
01:39 61.5 °F 57.6 °F 30 in NE 3.6 mph 6 mph 87% 0 in
01:44 61.5 °F 57.6 °F 30 in NE 3.6 mph 6 mph 87% 0 in
01:49 61.5 °F 57.6 °F 30 in NE 3.7 mph 6 mph 87% 0 in
01:54 61.5 °F 57.6 °F 30 in NE 4 mph 5.8 mph 87% 0 in
01:59 61.3 °F 57.4 °F 30 in NNE 3.6 mph 6 mph 87% 0 in
02:04 61.5 °F 57.7 °F 30 in NNE 3.1 mph 5 mph 87.5% 0 in
02:09 61.5 °F 57.6 °F 30 in NNE 2.4 mph 3.6 mph 87% 0 in
02:14 61.5 °F 57.6 °F 30 in NE 1.4 mph 5.4 mph 87% 0 in
02:19 61.5 °F 57.9 °F 30 in NE 2.1 mph 6 mph 87.8% 0 in
02:24 61.5 °F 57.9 °F 30 in ENE 3.1 mph 6 mph 88% 0 in
02:29 61.5 °F 57.9 °F 30 in NE 3.1 mph 5.4 mph 88% 0 in
02:34 61.7 °F 58.1 °F 30 in NE 3.1 mph 6 mph 88% 0 in
02:39 61.9 °F 58.3 °F 30 in NE 3.1 mph 5 mph 88% 0 in
02:44 61.9 °F 58.1 °F 30 in North 3.1 mph 5 mph 87.2% 0 in
02:49 62.1 °F 58.1 °F 30 in North 2.6 mph 5 mph 87% 0 in
02:54 62.1 °F 58.1 °F 30 in North 1.8 mph 4 mph 87% 0 in
02:59 62.1 °F 58.1 °F 30 in North 0.9 mph 2 mph 87% 0 in
03:04 62.2 °F 58.3 °F 30 in Calm     87% 0 in
03:09 62.2 °F 58.3 °F 30 in Calm     87% 0 in
03:14 62.2 °F 58.1 °F 30 in Calm     86.5% 0 in
03:19 62.2 °F 58.1 °F 30 in Calm   2.9 mph 86% 0 in
03:24 62.4 °F 58.3 °F 30 in Calm   3.5 mph 86% 0 in
03:29 62.4 °F 58.3 °F 30 in ENE 0.7 mph 4.7 mph 86% 0 in
03:34 62.4 °F 58.3 °F 30 in NE 1.8 mph 5 mph 86% 0 in
03:39 62.6 °F 58.3 °F 30 in North 1.8 mph 3 mph 86% 0 in
03:44 62.8 °F 58.5 °F 30 in ONO 1.8 mph 4.6 mph 85.6% 0 in
03:49 62.8 °F 58.3 °F 30 in NO 1.9 mph 5 mph 85% 0 in
03:54 63 °F 58.3 °F 30 in NO 2 mph 5 mph 85% 0 in
03:59 63 °F 58.5 °F 30 in NO 1 mph 4.6 mph 85% 0 in
04:04 63 °F 58.5 °F 30 in Calm   5 mph 85% 0 in
04:09 63 °F 58.3 °F 30 in NNO 0.7 mph 5 mph 84.6% 0 in
04:14 63 °F 58.5 °F 30 in NNO 2 mph 3 mph 85% 0 in
04:19 63.1 °F 58.5 °F 30 in NNO 1.2 mph 1 mph 84.8% 0 in
04:24 63.1 °F 58.3 °F 30 in Calm     84.3% 0 in
04:29 63.1 °F 58.5 °F 30 in Calm     85% 0 in
04:34 63 °F 58.5 °F 30 in Calm     85% 0 in
04:39 63 °F 58.5 °F 30 in Calm     85% 0 in
04:44 63 °F 58.5 °F 30 in Calm     85% 0 in
04:49 63 °F 58.5 °F 30 in Calm     85% 0 in
04:54 63 °F 58.3 °F 30 in Calm     85% 0 in
04:59 62.8 °F 58.3 °F 30 in Calm     85% 0 in
05:04 62.8 °F 58.3 °F 30 in Calm   4.6 mph 85% 0 in
05:09 62.8 °F 58.3 °F 30 in NNO 0.6 mph 5 mph 85% 0 in
05:14 63 °F 58.5 °F 30 in NNO 1.4 mph 5 mph 85% 0 in
05:19 63 °F 58.5 °F 30 in NNO 0.9 mph   85% 0 in
05:24 63 °F 58.5 °F 30 in Calm   2.3 mph 85% 0 in
05:29 63 °F 58.5 °F 30 in Calm   2.9 mph 85% 0 in
05:34 63 °F 58.3 °F 30 in Calm   3 mph 84.6% 0 in
05:39 63 °F 58.1 °F 30 in Calm   3.6 mph 84.4% 0 in
05:44 63 °F 58.5 °F 30 in Calm   4.6 mph 85% 0 in
05:49 63 °F 58.5 °F 30 in NE 0.9 mph 5 mph 85% 0 in
05:54 63 °F 58.3 °F 30 in NE 2.4 mph 5 mph 85% 0 in
05:59 62.8 °F 58.3 °F 30 in NE 2.2 mph 5 mph 85% 0 in
06:04 62.8 °F 58.3 °F 30 in NE 2 mph 4.6 mph 85% 0 in
06:09 62.8 °F 58.3 °F 30 in NE 2.2 mph 5 mph 85% 0 in
06:14 62.8 °F 58.3 °F 30 in Este 2.4 mph 5.8 mph 85.1% 0 in
06:19 62.6 °F 58.1 °F 30 in ENE 2.6 mph 6 mph 85% 0 in
06:24 62.6 °F 58.3 °F 30 in ENE 2.9 mph 5 mph 85.8% 0 in
06:29 62.6 °F 58.5 °F 30 in ENE 1.8 mph 2 mph 86% 0 in
06:34 62.8 °F 58.5 °F 30 in Calm     85.7% 0 in
06:39 62.8 °F 58.3 °F 30 in Calm   2.9 mph 85% 0 in
06:44 62.8 °F 58.5 °F 30 in Calm   3 mph 85.7% 0 in
06:49 62.8 °F 58.3 °F 30 in Calm   3.6 mph 85.4% 0 in
06:54 62.8 °F 58.5 °F 30 in Calm   4 mph 85.8% 0 in
06:59 62.8 °F 58.3 °F 30 in NO 0.9 mph 3.6 mph 85.2% 0 in
07:04 62.8 °F 58.5 °F 30 in NO 1.8 mph 4 mph 85.6% 0 in
07:09 62.8 °F 58.3 °F 30 in NO 1.1 mph 3 mph 85% 0 in
07:14 62.8 °F 58.3 °F 30 in Calm     85% 0 in
07:19 62.8 °F 58.3 °F 30 in Calm   3.1 mph 85% 0 in
07:24 63 °F 58.3 °F 30 in Calm   3.5 mph 85% 0 in
07:29 63 °F 58.1 °F 30 in SO 0.5 mph 5.9 mph 84.3% 0 in
07:34 63 °F 57.7 °F 30 in SSO 1.4 mph 6 mph 83% 0 in
07:39 63 °F 57.6 °F 30 in SO 2 mph 5.2 mph 82.7% 0 in
07:44 63.1 °F 57.6 °F 30 in SSO 2.9 mph 6.2 mph 82% 0 in
07:49 63.1 °F 57.6 °F 30 in SO 2.9 mph 6 mph 81.7% 0 in
07:54 63.1 °F 57.2 °F 30 in SO 2.9 mph 5.8 mph 81% 0 in
07:59 63.1 °F 57.2 °F 30 in SO 3 mph 6 mph 81% 0 in
08:04 63.1 °F 57.4 °F 30 in SO 3.1 mph 6.2 mph 81% 0 in
08:09 63.3 °F 57.4 °F 30 in SSO 2.8 mph 6.2 mph 81% 0 in
08:14 63.3 °F 57.2 °F 30 in SO 2.4 mph 6.9 mph 80.6% 0 in
08:19 63.3 °F 57 °F 30 in OSO 3 mph 7 mph 80% 0 in
08:24 63.1 °F 57 °F 30 in OSO 4 mph 7 mph 80.2% 0 in
08:29 63.1 °F 57.2 °F 30 in Oeste 4.1 mph 8.1 mph 80.8% 0 in
08:34 63.1 °F 57 °F 30 in ONO 4.3 mph 8 mph 80.3% 0 in
08:39 63.3 °F 57.2 °F 30 in Oeste 4 mph 6.9 mph 80.3% 0 in
08:44 63.5 °F 57 °F 30 in OSO 3.6 mph 8.5 mph 79.4% 0 in
08:49 63.3 °F 56.8 °F 30 in Oeste 4 mph 9 mph 79.4% 0 in
08:54 63.7 °F 57 °F 30 in SO 4.7 mph 9.2 mph 79.3% 0 in
08:59 63.7 °F 57 °F 30 in OSO 5 mph 9 mph 79% 0 in
09:04 63.7 °F 57 °F 30 in OSO 5.2 mph 9 mph 79% 0 in
09:09 63.5 °F 56.8 °F 30 in Oeste 4.8 mph 9 mph 79% 0 in
09:14 63.5 °F 56.8 °F 30 in OSO 4.3 mph 8.1 mph 79% 0 in
09:19 63.7 °F 57 °F 30 in OSO 4.7 mph 8.1 mph 79% 0 in
09:24 63.7 °F 57 °F 30 in OSO 5.2 mph 10.2 mph 79% 0 in
09:29 63.9 °F 57.2 °F 30 in OSO 5.2 mph 10 mph 78.7% 0 in
09:34 64 °F 57 °F 30 in Oeste 5.2 mph 8 mph 78% 0 in
09:39 64.4 °F 57.4 °F 30 in SO 4.7 mph 7 mph 77.8% 0 in
09:44 64.6 °F 57.2 °F 30 in SSO 4 mph 7 mph 77% 0 in
09:49 64.8 °F 57.4 °F 30 in OSO 3.7 mph 6.2 mph 76.9% 0 in
09:54 65.1 °F 57.4 °F 30 in SO 3.1 mph 8.1 mph 76% 0 in
09:59 65.1 °F 57.4 °F 30 in SO 3.5 mph 8.1 mph 76% 0 in
10:04 65.3 °F 57.6 °F 30 in OSO 4 mph 8 mph 76% 0 in
10:09 65.7 °F 57.6 °F 30 in SO 3.7 mph 7 mph 75.3% 0 in
10:14 66 °F 57.7 °F 30 in SO 3.1 mph 9.2 mph 74.6% 0 in
10:19 66.2 °F 57.6 °F 30 in Sur 3.5 mph 9 mph 73.8% 0 in
10:24 66.4 °F 57.6 °F 30 in SO 4.3 mph 7 mph 73.2% 0 in
10:29 66.6 °F 57.7 °F 30 in OSO 3.9 mph 7 mph 73.3% 0 in
10:34 66.9 °F 57.9 °F 30 in OSO 3.1 mph 6 mph 72.8% 0 in
10:39 67.5 °F 57.9 °F 30 in Sur 3 mph 6 mph 72% 0 in
10:44 67.8 °F 57.6 °F 30 in OSO 2.9 mph 6.9 mph 69.8% 0 in
10:49 68.2 °F 57.6 °F 30 in ONO 2.7 mph 7 mph 68.9% 0 in
10:54 68.4 °F 57.6 °F 30 in SSO 2.4 mph 9.2 mph 68.2% 0 in
10:59 68.5 °F 57.6 °F 30 in SSO 3.2 mph 9 mph 67.7% 0 in
11:04 68.9 °F 57.4 °F 30 in SSO 4 mph 7.4 mph 67% 0 in
11:09 69.1 °F 57.7 °F 30 in Sur 4 mph 7 mph 67.2% 0 in
11:14 69.4 °F 57.7 °F 30 in SO 4 mph 8.1 mph 66.2% 0 in
11:19 69.6 °F 57.2 °F 30 in SO 4 mph 8.1 mph 64.8% 0 in
11:24 69.8 °F 57.4 °F 30 in SSO 4 mph 8 mph 64.8% 0 in
11:29 70.2 °F 57.4 °F 30 in SSO 3.7 mph 6.9 mph 64.3% 0 in
11:34 70.3 °F 57.7 °F 30 in SSE 3.1 mph 7 mph 64% 0 in
11:39 71.2 °F 57.7 °F 30 in NNE 2.8 mph 5.9 mph 62.4% 0 in
11:44 71.6 °F 57 °F 30 in SO 2.4 mph 8.1 mph 60% 0 in
11:49 71.8 °F 56.7 °F 30 in SSO 3 mph 8.1 mph 59% 0 in
11:54 72 °F 56.5 °F 30 in SE 4 mph 8 mph 58.4% 0 in
11:59 72.3 °F 56.7 °F 30 in Este 3.2 mph 6 mph 58.1% 0 in
12:04 73 °F 56.7 °F 30 in SE 2.4 mph 5.8 mph 56.6% 0 in
12:09 73.2 °F 56.3 °F 30 in SO 2.6 mph 6 mph 55.2% 0 in
12:14 73.8 °F 56.5 °F 30 in NO 2.9 mph 6 mph 55% 0 in
12:19 74.1 °F 56.5 °F 30 in ESE 2.9 mph 6 mph 54.1% 0 in
12:24 74.5 °F 56.3 °F 30 in ESE 2.9 mph 5 mph 53.1% 0 in
12:29 74.8 °F 56.1 °F 30 in SSO 2.9 mph 6.9 mph 52.3% 0 in
12:34 74.8 °F 55.9 °F 30 in SSE 2.9 mph 7 mph 51.7% 0 in
12:39 75 °F 55.6 °F 30 in ENE 3 mph 7.6 mph 50.8% 0 in
12:44 75 °F 55.8 °F 30 in NNE 3.1 mph 8.1 mph 51.2% 0 in
12:49 75.6 °F 55.9 °F 30 in NE 3.5 mph 6.9 mph 50.8% 0 in
12:54 75.7 °F 55.8 °F 30 in NNE 4 mph 7 mph 50% 0 in
12:59 76.5 °F 55.8 °F 30 in OSO 3.5 mph 8.1 mph 49% 0 in
13:04 76.6 °F 55.9 °F 30 in North 2.9 mph 8 mph 48.9% 0 in
13:09 76.6 °F 55.9 °F 30 in NE 2.9 mph 6 mph 49% 0 in
13:14 76.8 °F 55.4 °F 30 in NE 2.9 mph 6.2 mph 47.4% 0 in
13:19 77.2 °F 54.3 °F 30 in NE 3 mph 6 mph 45.1% 0 in
13:24 77.5 °F 54.5 °F 30 in NNE 3.1 mph 5 mph 45.1% 0 in
13:29 77.9 °F 55.4 °F 30 in NE 3 mph 9.2 mph 45.7% 0 in
13:34 78.1 °F 54.7 °F 30 in NE 2.9 mph 9.2 mph 44.5% 0 in
13:39 78.3 °F 54.5 °F 30 in Este 2.9 mph 6 mph 44% 0 in
13:44 78.6 °F 54.7 °F 30 in SSO 2.9 mph 6.9 mph 43.6% 0 in
13:49 79 °F 54.9 °F 30 in SSE 2.9 mph 7 mph 43.4% 0 in
13:54 79.3 °F 54.7 °F 30 in ENE 2.9 mph 11.2 mph 42.7% 0 in
13:59 79 °F 54.5 °F 30 in NE 4.1 mph 12 mph 42.9% 0 in
14:04 78.8 °F 54.5 °F 30 in ESE 5.4 mph 10.4 mph 43% 0 in
14:09 79.2 °F 54.5 °F 30 in SSO 4.9 mph 10 mph 42.6% 0 in
14:14 79.2 °F 54.1 °F 30 in SO 4 mph 7.4 mph 42% 0 in
14:19 79.3 °F 54.7 °F 30 in Este 4 mph 10.4 mph 42.7% 0 in
14:24 79.5 °F 54.9 °F 30 in Este 4 mph 10 mph 42.7% 0 in
14:29 79.7 °F 54.5 °F 30 in ENE 4 mph 9 mph 42% 0 in
14:34 79.7 °F 54.9 °F 30 in ENE 4 mph 10.2 mph 42.5% 0 in
14:39 79.9 °F 55.8 °F 30 in Este 4.5 mph 10.4 mph 43.7% 0 in
14:44 80.1 °F 56.5 °F 30 in ESE 5.4 mph 15.2 mph 44.8% 0 in
14:49 80.1 °F 56.3 °F 30 in SSE 6.4 mph 15 mph 44.3% 0 in
14:54 80.1 °F 57 °F 30 in SSE 8.1 mph 15 mph 45.3% 0 in
14:59 80.2 °F 57.4 °F 30 in ESE 8.6 mph 16.1 mph 45.9% 0 in
15:04 80.2 °F 58.6 °F 30 in SE 9.2 mph 18.4 mph 47.7% 0 in
15:09 80.2 °F 58.8 °F 29.9 in SE 9.2 mph 18 mph 48.1% 0 in
15:14 80.1 °F 59.5 °F 29.9 in SE 9.2 mph 19.2 mph 49.5% 0 in
15:19 79.5 °F 59 °F 29.9 in SE 9.8 mph 19 mph 49.6% 0 in
15:24 79.3 °F 59 °F 29.9 in SE 10.7 mph 19 mph 49.8% 0 in
15:29 79.3 °F 59 °F 29.9 in SE 10.9 mph 19 mph 50% 0 in
15:34 79.2 °F 59.5 °F 29.9 in ESE 11.2 mph 18.5 mph 51% 0 in
15:39 79 °F 59.5 °F 29.9 in ESE 11.6 mph 22.5 mph 51.5% 0 in
15:44 78.6 °F 59.2 °F 29.9 in ESE 12.3 mph 23 mph 51.3% 0 in
15:49 78.4 °F 59.2 °F 29.9 in ESE 12.6 mph 23 mph 51.6% 0 in
15:54 79.2 °F 58.8 °F 29.9 in SE 13 mph 18 mph 49.6% 0 in
15:59 79.3 °F 58.5 °F 29.9 in SE 11.2 mph 15 mph 49% 0 in
16:04 79.5 °F 58.3 °F 29.9 in SE 9.2 mph 16.3 mph 48.4% 0 in
16:09 79.7 °F 57.9 °F 29.9 in SE 9.2 mph 16 mph 47.5% 0 in
16:14 80.2 °F 58.3 °F 29.9 in ESE 9.2 mph 15 mph 47.2% 0 in
16:19 80.4 °F 57.7 °F 29.9 in ESE 8.8 mph 13.8 mph 46% 0 in
16:24 80.4 °F 57.2 °F 29.9 in Este 8.1 mph 14 mph 45.2% 0 in
16:29 80.4 °F 56.8 °F 29.9 in SE 8.3 mph 13 mph 44.5% 0 in
16:34 80.6 °F 56.7 °F 29.9 in SE 8.5 mph 15 mph 44% 0 in
16:39 80.2 °F 55.8 °F 29.9 in SE 8.1 mph 15 mph 43% 0 in
16:44 80.4 °F 55.9 °F 29.9 in ESE 7.6 mph 14 mph 43% 0 in
16:49 80.4 °F 55.8 °F 29.9 in SE 7.1 mph 12 mph 42.8% 0 in
16:54 80.6 °F 54.9 °F 29.9 in Sur 6.4 mph 13.8 mph 41.3% 0 in
16:59 80.4 °F 55 °F 29.9 in SSE 7.4 mph 14 mph 41.7% 0 in
17:04 81 °F 55.6 °F 29.9 in SE 8.5 mph 12.7 mph 41.8% 0 in
17:09 81.1 °F 55.2 °F 29.9 in ESE 8.1 mph 13 mph 41.2% 0 in
17:14 81.3 °F 54.9 °F 29.9 in ESE 7.4 mph 15 mph 40% 0 in
17:19 81.3 °F 54.7 °F 29.9 in SE 7.5 mph 15 mph 39.9% 0 in
17:24 81.7 °F 54.5 °F 29.9 in SSE 7.6 mph 13 mph 39.4% 0 in
17:29 81.5 °F 54.1 °F 29.9 in SE 7.8 mph 13 mph 39% 0 in
17:34 81 °F 54.1 °F 29.9 in ESE 8.1 mph 16.1 mph 39.6% 0 in
17:39 80.8 °F 54.1 °F 29.9 in ESE 8.3 mph 16.1 mph 40% 0 in
17:44 80.4 °F 54.1 °F 29.9 in ESE 8.7 mph 15 mph 40.2% 0 in
17:49 80.4 °F 54.3 °F 29.9 in SE 8.7 mph 15 mph 40.6% 0 in
17:54 80.2 °F 54.3 °F 29.9 in SE 8.7 mph 15 mph 41% 0 in
17:59 79.9 °F 54.3 °F 29.9 in SE 8.6 mph 15 mph 41.4% 0 in
18:04 79.7 °F 54 °F 29.9 in ESE 8.5 mph 15 mph 41.2% 0 in
18:09 79.3 °F 54.1 °F 29.9 in ESE 8.9 mph 15.2 mph 41.8% 0 in
18:14 79.2 °F 54.5 °F 29.9 in SE 9.7 mph 15 mph 42.8% 0 in
18:19 79.2 °F 54.7 °F 29.9 in ESE 8.7 mph 12.7 mph 43% 0 in
18:24 79 °F 55 °F 29.9 in ESE 6.9 mph 13 mph 44% 0 in
18:29 78.6 °F 55.2 °F 29.9 in ESE 7.3 mph 14 mph 44.6% 0 in
18:34 78.6 °F 55.6 °F 29.9 in SE 8.1 mph 14 mph 45% 0 in
18:39 78.6 °F 55.6 °F 29.9 in ESE 8.1 mph 15 mph 45% 0 in
18:44 78.3 °F 55.4 °F 29.9 in ESE 8.1 mph 15 mph 45.2% 0 in
18:49 78.4 °F 55.8 °F 29.9 in ESE 8.1 mph 14 mph 45.8% 0 in
18:54 78.4 °F 55.8 °F 29.9 in SE 8.1 mph 13 mph 45.8% 0 in
18:59 78.1 °F 55.9 °F 29.9 in ESE 7.8 mph 13 mph 46.7% 0 in
19:04 77.7 °F 55.9 °F 29.9 in ESE 7.4 mph 13.7 mph 47% 0 in
19:09 77.5 °F 56.1 °F 29.9 in ESE 7.2 mph 14 mph 47.7% 0 in
19:14 77.4 °F 56.1 °F 29.9 in ESE 6.9 mph 14 mph 48% 0 in
19:19 77.4 °F 56.5 °F 29.9 in ESE 7.1 mph 12 mph 48.5% 0 in
19:24 77.4 °F 56.7 °F 29.9 in ESE 7.6 mph 10.4 mph 49% 0 in
19:29 77.4 °F 56.7 °F 29.9 in ESE 7 mph 10.4 mph 49% 0 in
19:34 77.2 °F 56.5 °F 29.9 in ESE 5.9 mph 10 mph 49% 0 in
19:39 77 °F 56.8 °F 29.9 in ESE 5.7 mph 9.2 mph 49.9% 0 in
19:44 76.6 °F 56.7 °F 29.9 in ESE 5.4 mph 9 mph 50% 0 in
19:49 76.6 °F 56.5 °F 29.9 in Este 5.2 mph 7 mph 50% 0 in
19:54 76.5 °F 56.5 °F 29.9 in ESE 4.7 mph 6.9 mph 50.3% 0 in
19:59 76.5 °F 56.8 °F 29.9 in ESE 4.5 mph 7 mph 50.9% 0 in
20:04 76.1 °F 56.7 °F 29.9 in ESE 4.3 mph 7 mph 51% 0 in
20:09 75.7 °F 56.7 °F 29.9 in ESE 4.3 mph 7 mph 51.3% 0 in
20:14 75.7 °F 57 °F 29.9 in Este 4.3 mph 7 mph 52% 0 in
20:19 75.7 °F 56.8 °F 29.9 in Este 3.9 mph 6.9 mph 52% 0 in
20:24 75.6 °F 57.2 °F 29.9 in ENE 3.1 mph 7.4 mph 52.9% 0 in
20:29 75.4 °F 57.6 °F 29.9 in NE 3.4 mph 8.5 mph 54% 0 in
20:34 74.8 °F 57.7 °F 29.9 in NE 4 mph 9.7 mph 55.2% 0 in
20:39 74.1 °F 58.8 °F 29.9 in NNE 4.8 mph 11.5 mph 58.6% 0 in
20:44 73.4 °F 59 °F 29.9 in NE 6.2 mph 12 mph 60.8% 0 in
20:49 72.9 °F 59 °F 29.9 in NE 6.5 mph 12 mph 61.9% 0 in
20:54 72.3 °F 58.8 °F 29.9 in NE 6.9 mph 12 mph 62.8% 0 in
20:59 71.8 °F 59 °F 29.9 in NNE 6.9 mph 11.5 mph 64.1% 0 in
21:04 71.2 °F 59 °F 29.9 in NE 6.9 mph 13 mph 65.5% 0 in
21:09 71.1 °F 59.2 °F 29.9 in NE 6.7 mph 12 mph 66.4% 0 in
21:14 70.5 °F 59.4 °F 29.9 in NNE 6.4 mph 10.7 mph 67.6% 0 in
21:19 70.2 °F 59.5 °F 29.9 in NE 6.3 mph 11 mph 69.2% 0 in
21:24 69.8 °F 59.7 °F 29.9 in NNE 6.2 mph 9 mph 70.1% 0 in
21:29 69.6 °F 59.7 °F 29.9 in NNE 5.5 mph 7.4 mph 71% 0 in
21:34 69.3 °F 59.9 °F 29.9 in NNE 4.3 mph 7 mph 72% 0 in
21:39 69.1 °F 60.1 °F 29.9 in NNE 4.5 mph 9.2 mph 72.9% 0 in
21:44 68.5 °F 59.9 °F 29.9 in NNE 4.7 mph 10.4 mph 73.8% 0 in
21:49 68.4 °F 60.1 °F 29.9 in NNE 4.9 mph 10 mph 75% 0 in
21:54 68 °F 60.1 °F 29.9 in NNE 5.2 mph 10.4 mph 75.8% 0 in
21:59 67.6 °F 60.1 °F 29.9 in NNE 5.5 mph 10 mph 76.8% 0 in
22:04 67.5 °F 60.1 °F 29.9 in NE 5.9 mph 9 mph 77.3% 0 in
22:09 67.3 °F 60.3 °F 29.9 in NNE 5.1 mph 7.4 mph 78% 0 in
22:14 67.1 °F 59.9 °F 29.9 in NE 3.6 mph 7 mph 78% 0 in
22:19 66.9 °F 59.9 °F 29.9 in NNE 3.4 mph 7 mph 78.4% 0 in
22:24 66.7 °F 60.1 °F 29.9 in NNE 3.1 mph 6 mph 79% 0 in
22:29 66.7 °F 59.9 °F 29.9 in NNE 2.9 mph 6 mph 79% 0 in
22:34 66.6 °F 60.1 °F 29.9 in NNE 2.4 mph 6.9 mph 79.6% 0 in
22:39 66.4 °F 60.1 °F 29.9 in NNE 3 mph 7.4 mph 80.5% 0 in
22:44 66 °F 60.1 °F 29.9 in North 4 mph 8.1 mph 81.3% 0 in
22:49 66 °F 60.3 °F 29.9 in NNE 3.9 mph 8 mph 82% 0 in
22:54 65.8 °F 60.3 °F 29.9 in NE 3.6 mph 7 mph 82% 0 in
22:59 65.7 °F 60.4 °F 29.9 in NE 3.3 mph 6 mph 82.9% 0 in
23:04 65.5 °F 60.3 °F 29.9 in NNE 2.9 mph 5.9 mph 83% 0 in
23:09 65.3 °F 60.3 °F 29.9 in NNE 3.2 mph 6 mph 83.9% 0 in
23:14 65.1 °F 60.3 °F 29.9 in North 3.6 mph 6 mph 84% 0 in
23:19 64.9 °F 60.1 °F 29.9 in NNE 3.4 mph 6 mph 84.1% 0 in
23:24 64.9 °F 60.3 °F 29.9 in NNE 2.9 mph 5.9 mph 85% 0 in
23:29 64.8 °F 60.1 °F 29.9 in North 2.9 mph 6 mph 85% 0 in
23:34 64.8 °F 60.1 °F 29.9 in North 2.9 mph 6 mph 85% 0 in
23:39 64.8 °F 60.1 °F 29.9 in NNO 2.9 mph 6 mph 85% 0 in
23:44 64.6 °F 60.1 °F 29.9 in North 2.9 mph 6 mph 85% 0 in
23:49 64.6 °F 60.1 °F 29.9 in NNO 2.5 mph 4 mph 85% 0 in
23:54 64.6 °F 60.1 °F 29.9 in NNO 1.8 mph 4 mph 85% 0 in
23:59 64.6 °F 59.9 °F 29.9 in NO 2.1 mph 5.2 mph 85% 0 in
Murcia-Puente Tocinos, España
Compliments of Weather Underground - 3 mb

La estación de MeteoMurcia.com, publica sus datos en los siguientes proyectos:

Weather Underground PWS IMURCIAP2 Meteoclimatic www.awekas.at

W3Counter
Web Analytics